createdAt,value
2019-03-24T00:00:04.824Z,29.60
2019-03-24T00:02:33.396Z,28.37
2019-03-24T00:05:01.891Z,29.60
2019-03-24T00:07:30.412Z,28.80
2019-03-24T00:09:58.895Z,27.70
2019-03-24T00:12:27.396Z,27.80
2019-03-24T00:14:55.904Z,28.47
2019-03-24T00:17:24.490Z,28.67
2019-03-24T00:19:52.947Z,28.57
2019-03-24T00:22:21.422Z,26.17
2019-03-24T00:24:49.948Z,26.47
2019-03-24T00:27:18.437Z,26.83
2019-03-24T00:29:46.955Z,24.80
2019-03-24T00:32:15.439Z,23.83
2019-03-24T00:34:43.935Z,24.50
2019-03-24T00:37:12.417Z,23.87
2019-03-24T00:39:40.918Z,21.33
2019-03-24T00:42:09.382Z,21.93
2019-03-24T00:44:37.894Z,21.23
2019-03-24T00:47:06.442Z,21.50
2019-03-24T00:49:35.005Z,20.93
2019-03-24T00:52:04.621Z,21.17
2019-03-24T00:54:33.105Z,18.47
2019-03-24T00:57:01.592Z,20.10
2019-03-24T00:59:30.133Z,19.00
2019-03-24T01:01:58.628Z,19.00
2019-03-24T01:04:27.142Z,18.57
2019-03-24T01:06:55.622Z,17.77
2019-03-24T01:09:24.301Z,16.83
2019-03-24T01:11:52.771Z,17.50
2019-03-24T01:14:21.282Z,18.33
2019-03-24T01:16:49.761Z,17.00
2019-03-24T01:19:18.241Z,17.93
2019-03-24T01:21:46.879Z,18.23
2019-03-24T01:24:15.383Z,18.13
2019-03-24T01:26:43.864Z,18.60
2019-03-24T01:29:12.353Z,19.30
2019-03-24T01:31:40.856Z,20.07
2019-03-24T01:34:09.357Z,20.13
2019-03-24T01:36:37.878Z,19.03
2019-03-24T01:39:07.827Z,17.53
2019-03-24T01:41:36.313Z,16.03
2019-03-24T01:44:05.386Z,14.97
2019-03-24T01:46:33.860Z,15.83
2019-03-24T01:49:02.367Z,16.17
2019-03-24T01:51:30.854Z,16.07
2019-03-24T01:53:59.362Z,15.97
2019-03-24T01:56:27.818Z,18.23
2019-03-24T01:58:56.346Z,18.10
2019-03-24T02:01:24.997Z,16.70
2019-03-24T02:03:53.482Z,18.50
2019-03-24T02:06:21.975Z,19.03
2019-03-24T02:08:50.468Z,16.70
2019-03-24T02:11:19.006Z,17.63
2019-03-24T02:13:47.460Z,16.73
2019-03-24T02:16:15.970Z,15.50
2019-03-24T02:18:44.442Z,15.40
2019-03-24T02:21:13.027Z,15.70
2019-03-24T02:23:41.511Z,15.43
2019-03-24T02:26:10.017Z,15.20
2019-03-24T02:28:38.493Z,14.30
2019-03-24T02:31:06.999Z,14.80
2019-03-24T02:33:35.535Z,15.20
2019-03-24T02:36:04.031Z,14.20
2019-03-24T02:38:32.545Z,14.63
2019-03-24T02:41:01.061Z,14.47
2019-03-24T02:43:29.533Z,12.40
2019-03-24T02:45:58.055Z,12.53
2019-03-24T02:48:26.552Z,13.20
2019-03-24T02:50:55.062Z,11.80
2019-03-24T02:53:23.544Z,11.90
2019-03-24T02:55:52.043Z,11.23
2019-03-24T02:58:20.514Z,10.23
2019-03-24T03:00:49.032Z,10.83
2019-03-24T03:03:17.465Z,9.67
2019-03-24T03:05:45.955Z,10.20
2019-03-24T03:08:14.432Z,8.97
2019-03-24T03:10:42.928Z,9.30
2019-03-24T03:13:11.393Z,8.90
2019-03-24T03:15:39.893Z,9.07
2019-03-24T03:18:08.356Z,9.87
2019-03-24T03:20:36.871Z,8.77
2019-03-24T03:23:05.319Z,9.13
2019-03-24T03:25:33.825Z,9.40
2019-03-24T03:28:02.383Z,9.00
2019-03-24T03:30:30.868Z,8.93
2019-03-24T03:32:59.334Z,9.30
2019-03-24T03:35:27.838Z,8.43
2019-03-24T03:37:56.351Z,8.87
2019-03-24T03:40:25.486Z,8.33
2019-03-24T03:42:53.954Z,8.27
2019-03-24T03:45:27.365Z,8.70
2019-03-24T03:47:56.488Z,8.60
2019-03-24T03:50:24.967Z,7.43
2019-03-24T03:52:54.964Z,8.27
2019-03-24T03:55:23.463Z,8.10
2019-03-24T03:57:52.298Z,8.57
2019-03-24T04:00:23.833Z,8.17
2019-03-24T04:02:52.325Z,7.53
2019-03-24T04:05:20.794Z,7.33
2019-03-24T04:07:49.285Z,7.80
2019-03-24T04:10:17.775Z,7.03
2019-03-24T04:12:46.280Z,7.20
2019-03-24T04:15:14.764Z,6.60
2019-03-24T04:17:43.256Z,6.73
2019-03-24T04:20:11.818Z,6.73
2019-03-24T04:22:40.422Z,6.93
2019-03-24T04:25:08.969Z,7.83
2019-03-24T04:27:37.487Z,8.27
2019-03-24T04:30:07.691Z,9.37
2019-03-24T04:32:36.208Z,8.43
2019-03-24T04:35:07.008Z,8.77
2019-03-24T04:37:35.506Z,8.73
2019-03-24T04:40:05.918Z,7.47
2019-03-24T04:42:34.425Z,8.03
2019-03-24T04:45:02.948Z,7.60
2019-03-24T04:47:31.421Z,7.43
2019-03-24T04:49:59.956Z,8.30
2019-03-24T04:52:28.445Z,7.90
2019-03-24T04:54:56.927Z,7.90
2019-03-24T04:57:25.441Z,7.80
2019-03-24T04:59:53.891Z,7.97
2019-03-24T05:02:22.403Z,8.50
2019-03-24T05:04:50.876Z,7.70
2019-03-24T05:07:19.380Z,7.40
2019-03-24T05:09:47.871Z,8.13
2019-03-24T05:12:16.484Z,7.87
2019-03-24T05:14:44.978Z,7.50
2019-03-24T05:17:13.482Z,7.17
2019-03-24T05:19:41.960Z,7.63
2019-03-24T05:22:10.440Z,7.37
2019-03-24T05:24:38.927Z,7.40
2019-03-24T05:27:07.406Z,7.13
2019-03-24T05:29:35.906Z,8.50
2019-03-24T05:32:04.407Z,8.40
2019-03-24T05:34:32.845Z,8.17
2019-03-24T05:37:01.337Z,7.67
2019-03-24T05:39:29.813Z,7.00
2019-03-24T05:41:58.287Z,7.90
2019-03-24T05:44:26.772Z,6.97
2019-03-24T05:46:55.285Z,7.90
2019-03-24T05:49:23.788Z,6.97
2019-03-24T05:51:52.284Z,7.23
2019-03-24T05:54:20.768Z,6.77
2019-03-24T05:56:49.239Z,6.63
2019-03-24T05:59:17.725Z,7.10
2019-03-24T06:01:46.204Z,6.43
2019-03-24T06:04:14.691Z,6.37
2019-03-24T06:06:43.173Z,6.27
2019-03-24T06:09:11.679Z,5.83
2019-03-24T06:11:40.154Z,6.47
2019-03-24T06:14:08.647Z,6.07
2019-03-24T06:16:38.032Z,5.70
2019-03-24T06:19:06.599Z,6.07
2019-03-24T06:21:35.071Z,6.40
2019-03-24T06:24:03.564Z,6.57
2019-03-24T06:26:32.035Z,6.77
2019-03-24T06:29:00.527Z,6.23
2019-03-24T06:31:28.996Z,6.30
2019-03-24T06:33:57.509Z,5.67
2019-03-24T06:36:25.975Z,5.73
2019-03-24T06:38:54.518Z,6.20
2019-03-24T06:41:22.975Z,5.73
2019-03-24T06:43:51.459Z,6.03
2019-03-24T06:46:22.733Z,5.57
2019-03-24T06:48:51.234Z,6.07
2019-03-24T06:51:19.716Z,5.47
2019-03-24T06:53:48.236Z,4.97
2019-03-24T06:56:16.717Z,5.03
2019-03-24T06:58:45.218Z,5.33
2019-03-24T07:01:13.691Z,5.87
2019-03-24T07:03:42.183Z,5.50
2019-03-24T07:06:10.651Z,5.10
2019-03-24T07:08:39.138Z,5.13
2019-03-24T07:11:13.395Z,5.50
2019-03-24T07:13:37.837Z,6.53
2019-03-24T07:16:06.315Z,5.40
2019-03-24T07:18:34.817Z,4.97
2019-03-24T07:21:03.284Z,5.03
2019-03-24T07:23:31.758Z,4.90
2019-03-24T07:26:00.240Z,5.20
2019-03-24T07:28:28.727Z,5.10
2019-03-24T07:30:57.218Z,5.07
2019-03-24T07:33:25.687Z,5.60
2019-03-24T07:35:54.213Z,5.97
2019-03-24T07:38:22.693Z,4.37
2019-03-24T07:40:51.244Z,5.37
2019-03-24T07:43:19.756Z,5.43
2019-03-24T07:45:48.238Z,4.50
2019-03-24T07:48:19.396Z,3.77
2019-03-24T07:50:47.214Z,4.40
2019-03-24T07:53:15.781Z,4.03
2019-03-24T07:55:44.311Z,4.23
2019-03-24T07:58:12.795Z,4.37
2019-03-24T08:00:41.299Z,4.70
2019-03-24T08:03:10.145Z,4.43
2019-03-24T08:05:38.659Z,4.33
2019-03-24T08:08:07.167Z,4.47
2019-03-24T08:10:35.678Z,4.77
2019-03-24T08:13:04.306Z,4.43
2019-03-24T08:15:32.820Z,4.93
2019-03-24T08:18:01.373Z,4.53
2019-03-24T08:20:29.885Z,4.53
2019-03-24T08:22:58.398Z,4.37
2019-03-24T08:25:26.889Z,4.37
2019-03-24T08:27:55.366Z,4.30
2019-03-24T08:30:31.885Z,4.27
2019-03-24T08:33:00.370Z,4.40
2019-03-24T08:35:28.949Z,4.23
2019-03-24T08:37:57.436Z,5.07
2019-03-24T08:40:25.996Z,4.50
2019-03-24T08:42:54.506Z,4.90
2019-03-24T08:45:27.498Z,4.73
2019-03-24T08:47:57.128Z,4.57
2019-03-24T08:50:26.193Z,4.53
2019-03-24T08:52:54.751Z,4.00
2019-03-24T08:55:23.309Z,4.43
2019-03-24T08:57:51.793Z,4.13
2019-03-24T09:00:30.200Z,4.30
2019-03-24T09:02:50.599Z,4.10
2019-03-24T09:05:19.128Z,4.70
2019-03-24T09:07:47.637Z,4.80
2019-03-24T09:10:16.298Z,4.20
2019-03-24T09:12:44.775Z,4.07
2019-03-24T09:15:13.293Z,4.37
2019-03-24T09:17:41.875Z,4.33
2019-03-24T09:20:10.874Z,4.60
2019-03-24T09:22:39.365Z,4.23
2019-03-24T09:25:08.296Z,4.47
2019-03-24T09:27:36.804Z,4.27
2019-03-24T09:30:08.175Z,4.20
2019-03-24T09:32:36.681Z,4.07
2019-03-24T09:35:06.579Z,4.10
2019-03-24T09:37:35.083Z,4.07
2019-03-24T09:40:04.262Z,4.10
2019-03-24T09:42:32.789Z,4.40
2019-03-24T09:45:01.290Z,4.42
2019-03-24T09:47:29.795Z,3.95
2019-03-24T09:49:58.274Z,3.60
2019-03-24T09:52:26.779Z,3.98
2019-03-24T09:54:55.261Z,4.00
2019-03-24T09:57:23.767Z,3.87
2019-03-24T09:59:52.352Z,3.80
2019-03-24T10:02:20.806Z,3.83
2019-03-24T10:04:49.286Z,3.50
2019-03-24T10:07:17.785Z,3.47
2019-03-24T10:09:46.283Z,3.60
2019-03-24T10:12:14.832Z,3.65
2019-03-24T10:14:43.311Z,4.00
2019-03-24T10:17:11.811Z,3.65
2019-03-24T10:19:40.283Z,3.25
2019-03-24T10:22:08.771Z,3.83
2019-03-24T10:24:37.244Z,2.98
2019-03-24T10:27:05.733Z,2.60
2019-03-24T10:29:34.257Z,3.10
2019-03-24T10:32:02.754Z,3.00
2019-03-24T10:34:31.262Z,3.42
2019-03-24T10:36:59.718Z,3.40
2019-03-24T10:39:28.228Z,2.92
2019-03-24T10:41:56.773Z,3.42
2019-03-24T10:44:25.256Z,2.80
2019-03-24T10:46:53.736Z,3.10
2019-03-24T10:49:25.162Z,3.25
2019-03-24T10:51:52.449Z,3.10
2019-03-24T10:54:20.975Z,3.27
2019-03-24T10:56:49.455Z,2.92
2019-03-24T10:59:17.958Z,3.05
2019-03-24T11:01:46.439Z,3.52
2019-03-24T11:04:15.961Z,2.98
2019-03-24T11:06:45.385Z,3.17
2019-03-24T11:09:13.889Z,3.20
2019-03-24T11:11:42.523Z,3.00
2019-03-24T11:14:11.022Z,3.30
2019-03-24T11:16:39.545Z,2.83
2019-03-24T11:19:08.038Z,3.17
2019-03-24T11:21:36.522Z,3.23
2019-03-24T11:24:05.040Z,2.60
2019-03-24T11:26:34.508Z,2.73
2019-03-24T11:29:03.023Z,3.33
2019-03-24T11:31:31.501Z,2.80
2019-03-24T11:34:00.020Z,2.77
2019-03-24T11:36:28.514Z,2.73
2019-03-24T11:38:59.107Z,2.67
2019-03-24T11:41:27.232Z,2.67
2019-03-24T11:43:55.705Z,2.60
2019-03-24T11:46:24.216Z,2.60
2019-03-24T11:48:52.715Z,2.83
2019-03-24T11:51:21.191Z,2.93
2019-03-24T11:53:49.673Z,3.00
2019-03-24T11:56:18.158Z,2.63
2019-03-24T11:58:46.730Z,2.50
2019-03-24T12:01:15.387Z,2.53
2019-03-24T12:03:43.925Z,2.63
2019-03-24T12:06:14.704Z,2.33
2019-03-24T12:08:42.635Z,2.67
2019-03-24T12:11:11.099Z,2.70
2019-03-24T12:13:39.600Z,2.63
2019-03-24T12:16:08.086Z,2.40
2019-03-24T12:18:36.801Z,2.43
2019-03-24T12:21:05.278Z,2.37
2019-03-24T12:23:33.847Z,2.73
2019-03-24T12:26:02.401Z,3.00
2019-03-24T12:28:30.912Z,2.43
2019-03-24T12:30:59.389Z,2.00
2019-03-24T12:33:27.903Z,2.40
2019-03-24T12:35:56.387Z,2.40
2019-03-24T12:38:24.868Z,2.03
2019-03-24T12:40:53.359Z,2.93
2019-03-24T12:43:21.837Z,2.73
2019-03-24T12:45:50.420Z,2.40
2019-03-24T12:48:18.989Z,2.50
2019-03-24T12:50:47.478Z,2.40
2019-03-24T12:53:15.958Z,3.00
2019-03-24T12:55:44.448Z,2.57
2019-03-24T12:58:12.915Z,2.53
2019-03-24T13:00:41.757Z,2.27
2019-03-24T13:03:11.603Z,3.03
2019-03-24T13:05:40.232Z,2.10
2019-03-24T13:08:16.719Z,2.83
2019-03-24T13:10:45.970Z,1.90
2019-03-24T13:13:15.873Z,2.33
2019-03-24T13:15:44.464Z,2.27
2019-03-24T13:18:12.966Z,2.37
2019-03-24T13:20:41.658Z,2.70
2019-03-24T13:23:10.403Z,2.60
2019-03-24T13:25:38.918Z,2.30
2019-03-24T13:28:07.394Z,2.23
2019-03-24T13:30:35.897Z,2.77
2019-03-24T13:33:04.516Z,1.97
2019-03-24T13:35:32.997Z,2.20
2019-03-24T13:38:01.496Z,2.20
2019-03-24T13:40:30.026Z,2.20
2019-03-24T13:42:58.538Z,2.00
2019-03-24T13:45:27.039Z,2.13
2019-03-24T13:47:55.525Z,2.50
2019-03-24T13:50:31.377Z,2.23
2019-03-24T13:52:54.238Z,2.20
2019-03-24T13:55:22.916Z,2.30
2019-03-24T13:57:51.494Z,2.60
2019-03-24T14:00:20.954Z,2.10
2019-03-24T14:02:49.439Z,2.30
2019-03-24T14:05:17.961Z,2.20
2019-03-24T14:07:46.463Z,2.00
2019-03-24T14:10:14.980Z,2.30
2019-03-24T14:12:43.520Z,2.23
2019-03-24T14:15:12.343Z,2.50
2019-03-24T14:17:40.768Z,3.40
2019-03-24T14:20:09.520Z,2.63
2019-03-24T14:22:38.014Z,1.90
2019-03-24T14:25:08.159Z,2.10
2019-03-24T14:27:36.633Z,2.30
2019-03-24T14:30:08.729Z,2.57
2019-03-24T14:32:37.213Z,2.03
2019-03-24T14:35:06.652Z,2.77
2019-03-24T14:37:35.167Z,2.47
2019-03-24T14:40:05.678Z,2.27
2019-03-24T14:42:34.203Z,2.27
2019-03-24T14:45:02.680Z,2.57
2019-03-24T14:47:31.176Z,2.47
2019-03-24T14:49:59.645Z,2.50
2019-03-24T14:52:28.158Z,2.50
2019-03-24T14:54:56.640Z,2.73
2019-03-24T14:57:25.144Z,3.53
2019-03-24T14:59:53.625Z,2.60
2019-03-24T15:02:22.114Z,2.40
2019-03-24T15:04:50.592Z,2.30
2019-03-24T15:07:19.104Z,2.40
2019-03-24T15:09:47.578Z,2.57
2019-03-24T15:12:16.086Z,2.00
2019-03-24T15:14:44.562Z,2.20
2019-03-24T15:17:13.147Z,2.60
2019-03-24T15:19:41.630Z,2.00
2019-03-24T15:22:10.143Z,2.13
2019-03-24T15:24:38.619Z,2.53
2019-03-24T15:27:07.178Z,2.80
2019-03-24T15:29:35.664Z,2.03
2019-03-24T15:32:04.151Z,2.27
2019-03-24T15:34:32.627Z,2.30
2019-03-24T15:37:01.141Z,3.00
2019-03-24T15:39:29.626Z,2.77
2019-03-24T15:41:58.119Z,2.40
2019-03-24T15:44:26.600Z,2.70
2019-03-24T15:46:55.092Z,3.10
2019-03-24T15:49:23.562Z,2.90
2019-03-24T15:51:52.052Z,2.43
2019-03-24T15:54:20.529Z,2.93
2019-03-24T15:56:49.041Z,2.30
2019-03-24T15:59:17.572Z,2.60
2019-03-24T16:01:46.071Z,2.80
2019-03-24T16:04:14.552Z,2.53
2019-03-24T16:06:43.043Z,2.83
2019-03-24T16:09:11.549Z,2.43
2019-03-24T16:11:40.037Z,2.33
2019-03-24T16:14:08.542Z,3.17
2019-03-24T16:16:37.035Z,3.10
2019-03-24T16:19:05.537Z,2.40
2019-03-24T16:21:34.013Z,2.63
2019-03-24T16:24:02.511Z,2.40
2019-03-24T16:26:31.008Z,2.27
2019-03-24T16:28:59.541Z,2.30
2019-03-24T16:31:28.010Z,2.73
2019-03-24T16:33:56.507Z,2.20
2019-03-24T16:36:24.987Z,2.77
2019-03-24T16:39:03.155Z,2.30
2019-03-24T16:41:23.690Z,2.07
2019-03-24T16:43:52.200Z,2.17
2019-03-24T16:46:20.681Z,2.57
2019-03-24T16:48:49.191Z,2.57
2019-03-24T16:51:17.663Z,2.47
2019-03-24T16:53:46.210Z,2.97
2019-03-24T16:56:14.675Z,2.63
2019-03-24T16:58:43.184Z,2.50
2019-03-24T17:01:11.671Z,2.83
2019-03-24T17:03:40.163Z,2.67
2019-03-24T17:06:10.162Z,2.87
2019-03-24T17:08:38.825Z,2.70
2019-03-24T17:11:07.287Z,2.40
2019-03-24T17:13:35.790Z,2.50
2019-03-24T17:16:23.657Z,2.83
2019-03-24T17:18:52.180Z,2.30
2019-03-24T17:21:20.636Z,2.40
2019-03-24T17:23:49.219Z,3.13
2019-03-24T17:26:17.693Z,3.00
2019-03-24T17:28:47.084Z,2.80
2019-03-24T17:31:15.742Z,2.20
2019-03-24T17:33:44.246Z,2.37
2019-03-24T17:36:12.746Z,2.17
2019-03-24T17:38:41.223Z,2.37
2019-03-24T17:41:09.707Z,2.37
2019-03-24T17:43:38.196Z,2.40
2019-03-24T17:46:06.679Z,2.90
2019-03-24T17:48:35.187Z,2.07
2019-03-24T17:51:03.725Z,2.30
2019-03-24T17:53:32.221Z,2.80
2019-03-24T17:56:00.682Z,2.30
2019-03-24T17:58:29.183Z,2.80
2019-03-24T18:00:58.025Z,2.23
2019-03-24T18:03:26.538Z,2.70
2019-03-24T18:05:55.000Z,2.60
2019-03-24T18:08:23.511Z,2.90
2019-03-24T18:10:51.988Z,2.43
2019-03-24T18:13:20.466Z,2.80
2019-03-24T18:15:48.956Z,2.60
2019-03-24T18:18:17.459Z,2.83
2019-03-24T18:20:45.928Z,2.77
2019-03-24T18:23:14.409Z,2.90
2019-03-24T18:25:42.927Z,2.83
2019-03-24T18:28:11.390Z,3.07
2019-03-24T18:30:39.889Z,3.17
2019-03-24T18:33:08.422Z,3.10
2019-03-24T18:35:36.922Z,2.70
2019-03-24T18:38:05.771Z,2.90
2019-03-24T18:40:34.331Z,2.73
2019-03-24T18:43:02.878Z,3.27
2019-03-24T18:45:31.376Z,2.87
2019-03-24T18:47:59.856Z,3.20
2019-03-24T18:50:28.354Z,2.93
2019-03-24T18:52:56.915Z,3.10
2019-03-24T18:55:25.489Z,3.87
2019-03-24T18:57:53.970Z,3.73
2019-03-24T19:00:22.613Z,3.20
2019-03-24T19:02:51.089Z,3.60
2019-03-24T19:05:19.584Z,3.63
2019-03-24T19:07:48.135Z,3.57
2019-03-24T19:10:17.128Z,3.23
2019-03-24T19:12:45.731Z,3.60
2019-03-24T19:15:16.248Z,3.27
2019-03-24T19:17:45.071Z,4.10
2019-03-24T19:20:14.093Z,3.73
2019-03-24T19:22:42.714Z,4.50
2019-03-24T19:25:11.571Z,4.63
2019-03-24T19:27:40.242Z,4.27
2019-03-24T19:30:11.784Z,4.10
2019-03-24T19:32:40.322Z,4.90
2019-03-24T19:35:09.372Z,4.63
2019-03-24T19:37:38.082Z,4.60
2019-03-24T19:40:09.624Z,4.00
2019-03-24T19:42:38.101Z,4.20
2019-03-24T19:45:06.955Z,3.30
2019-03-24T19:47:35.436Z,3.87
2019-03-24T19:50:05.691Z,3.20
2019-03-24T19:52:44.348Z,4.10
2019-03-24T19:55:06.507Z,3.57
2019-03-24T19:57:34.971Z,3.77
2019-03-24T20:00:04.122Z,3.47
2019-03-24T20:02:32.586Z,3.27
2019-03-24T20:05:01.103Z,3.33
2019-03-24T20:07:29.580Z,3.20
2019-03-24T20:09:58.052Z,3.20
2019-03-24T20:12:26.563Z,3.20
2019-03-24T20:14:55.008Z,3.33
2019-03-24T20:17:23.504Z,3.00
2019-03-24T20:19:51.972Z,3.07
2019-03-24T20:22:20.481Z,3.60
2019-03-24T20:24:48.973Z,3.23
2019-03-24T20:27:17.467Z,3.60
2019-03-24T20:29:45.947Z,3.50
2019-03-24T20:32:14.433Z,3.20
2019-03-24T20:34:42.913Z,3.70
2019-03-24T20:37:11.413Z,3.90
2019-03-24T20:39:39.876Z,3.83
2019-03-24T20:42:08.413Z,3.57
2019-03-24T20:44:36.997Z,3.27
2019-03-24T20:47:05.564Z,3.50
2019-03-24T20:49:34.043Z,3.43
2019-03-24T20:52:02.546Z,3.73
2019-03-24T20:54:31.032Z,3.33
2019-03-24T20:56:59.530Z,4.10
2019-03-24T20:59:28.007Z,3.40
2019-03-24T21:01:56.583Z,3.43
2019-03-24T21:04:25.123Z,3.27
2019-03-24T21:06:53.640Z,3.53
2019-03-24T21:09:22.125Z,3.73
2019-03-24T21:11:50.625Z,3.67
2019-03-24T21:14:19.166Z,3.80
2019-03-24T21:16:47.686Z,3.43
2019-03-24T21:19:16.165Z,3.50
2019-03-24T21:21:44.652Z,3.67
2019-03-24T21:24:13.123Z,3.80
2019-03-24T21:26:41.605Z,3.63
2019-03-24T21:29:10.071Z,3.67
2019-03-24T21:31:38.575Z,3.60
2019-03-24T21:34:07.059Z,3.50
2019-03-24T21:36:35.538Z,3.70
2019-03-24T21:39:05.926Z,3.57
2019-03-24T21:41:34.445Z,3.37
2019-03-24T21:44:02.923Z,3.07
2019-03-24T21:46:31.404Z,3.80
2019-03-24T21:48:59.896Z,3.67
2019-03-24T21:51:28.433Z,3.77
2019-03-24T21:53:56.912Z,4.20
2019-03-24T21:56:25.392Z,3.37
2019-03-24T21:58:53.897Z,3.70
2019-03-24T22:01:22.452Z,4.10
2019-03-24T22:03:50.949Z,4.10
2019-03-24T22:06:19.420Z,3.90
2019-03-24T22:08:47.917Z,3.87
2019-03-24T22:11:16.395Z,4.17
2019-03-24T22:13:44.921Z,3.93
2019-03-24T22:16:13.561Z,4.03
2019-03-24T22:18:42.058Z,3.70
2019-03-24T22:21:10.523Z,3.50
2019-03-24T22:23:39.030Z,3.60
2019-03-24T22:26:07.505Z,3.53
2019-03-24T22:28:36.010Z,4.67
2019-03-24T22:31:04.490Z,4.60
2019-03-24T22:33:32.979Z,4.27
2019-03-24T22:36:01.522Z,4.03
2019-03-24T22:38:30.632Z,4.30
2019-03-24T22:40:59.111Z,4.80
2019-03-24T22:43:27.640Z,4.17
2019-03-24T22:45:56.096Z,3.73
2019-03-24T22:48:24.579Z,3.83
2019-03-24T22:50:53.063Z,3.87
2019-03-24T22:53:21.567Z,4.13
2019-03-24T22:55:50.030Z,4.87
2019-03-24T22:58:18.532Z,4.37
2019-03-24T23:00:54.466Z,4.60
2019-03-24T23:03:25.129Z,4.63
2019-03-24T23:05:53.895Z,4.50
2019-03-24T23:08:22.413Z,4.93
2019-03-24T23:10:50.894Z,4.93
2019-03-24T23:13:19.382Z,5.37
2019-03-24T23:15:47.861Z,5.07
2019-03-24T23:18:16.356Z,5.27
2019-03-24T23:20:44.826Z,5.13
2019-03-24T23:23:13.336Z,5.00
2019-03-24T23:25:41.800Z,4.93
2019-03-24T23:28:10.370Z,5.27
2019-03-24T23:30:38.876Z,4.80
2019-03-24T23:33:07.384Z,5.33
2019-03-24T23:35:35.929Z,5.37
2019-03-24T23:38:04.600Z,4.67
2019-03-24T23:40:33.087Z,4.17
2019-03-24T23:43:01.613Z,4.97
2019-03-24T23:45:30.083Z,4.97
2019-03-24T23:47:58.571Z,4.83
2019-03-24T23:50:27.093Z,4.77
2019-03-24T23:52:55.639Z,4.60
2019-03-24T23:55:24.135Z,4.70
2019-03-24T23:57:52.608Z,4.50
